createdAt,value
2022-11-23T00:01:40.758Z,58.80
2022-11-23T00:04:08.500Z,60.20
2022-11-23T00:06:35.771Z,52.67
2022-11-23T00:09:02.945Z,51.67
2022-11-23T00:11:30.090Z,52.23
2022-11-23T00:13:57.336Z,53.40
2022-11-23T00:16:25.769Z,50.37
2022-11-23T00:18:53.590Z,46.10
2022-11-23T00:21:21.288Z,47.17
2022-11-23T00:23:48.526Z,57.67
2022-11-23T00:26:15.663Z,52.13
2022-11-23T00:28:42.836Z,49.60
2022-11-23T00:31:10.346Z,46.07
2022-11-23T00:33:37.844Z,42.70
2022-11-23T00:36:06.007Z,40.77
2022-11-23T00:38:33.172Z,39.47
2022-11-23T00:41:00.960Z,41.73
2022-11-23T00:43:28.483Z,43.20
2022-11-23T00:46:07.928Z,44.27
2022-11-23T00:48:35.079Z,47.20
2022-11-23T00:51:02.777Z,48.63
2022-11-23T00:53:29.970Z,49.43
2022-11-23T00:55:57.287Z,52.90
2022-11-23T00:58:24.663Z,51.47
2022-11-23T01:00:51.751Z,51.07
2022-11-23T01:03:18.911Z,54.37
2022-11-23T01:05:45.990Z,54.07
2022-11-23T01:08:13.068Z,52.63
2022-11-23T01:10:40.206Z,53.63
2022-11-23T01:13:07.316Z,54.17
2022-11-23T01:15:34.397Z,54.77
2022-11-23T01:18:01.533Z,53.10
2022-11-23T01:20:28.607Z,53.93
2022-11-23T01:22:55.718Z,54.07
2022-11-23T01:25:22.832Z,54.20
2022-11-23T01:27:49.918Z,53.33
2022-11-23T01:30:17.090Z,55.13
2022-11-23T01:32:44.489Z,53.60
2022-11-23T01:35:11.560Z,51.70
2022-11-23T01:37:38.651Z,51.37
2022-11-23T01:40:06.027Z,51.13
2022-11-23T01:42:48.386Z,49.33
2022-11-23T01:45:45.552Z,48.50
2022-11-23T01:48:22.637Z,51.60
2022-11-23T01:50:50.133Z,51.63
2022-11-23T01:53:17.213Z,55.30
2022-11-23T01:55:44.840Z,56.97
2022-11-23T01:58:12.038Z,56.47
2022-11-23T02:00:39.181Z,54.73
2022-11-23T02:03:06.496Z,55.80
2022-11-23T02:05:41.322Z,60.50
2022-11-23T02:08:08.671Z,62.43
2022-11-23T02:10:35.822Z,59.00
2022-11-23T02:13:06.314Z,55.57
2022-11-23T02:15:34.290Z,58.77
2022-11-23T02:18:01.831Z,58.07
2022-11-23T02:20:29.040Z,57.67
2022-11-23T02:23:04.932Z,58.67
2022-11-23T02:25:45.299Z,58.00
2022-11-23T02:28:32.646Z,53.70
2022-11-23T02:30:59.774Z,57.63
2022-11-23T02:33:26.871Z,64.63
2022-11-23T02:35:55.081Z,60.43
2022-11-23T02:38:22.530Z,54.57
2022-11-23T02:40:50.865Z,48.03
2022-11-23T02:46:02.818Z,53.50
2022-11-23T02:48:29.898Z,57.47
2022-11-23T02:50:56.969Z,71.03
2022-11-23T02:53:24.096Z,72.67
2022-11-23T02:55:51.182Z,53.00
2022-11-23T02:58:18.255Z,47.47
2022-11-23T03:00:45.463Z,58.13
2022-11-23T03:03:12.627Z,64.73
2022-11-23T03:05:39.761Z,64.10
2022-11-23T03:08:06.978Z,60.63
2022-11-23T03:10:34.062Z,60.57
2022-11-23T03:13:01.136Z,62.27
2022-11-23T03:15:28.683Z,61.37
2022-11-23T03:17:56.002Z,61.47
2022-11-23T03:20:23.103Z,58.37
2022-11-23T03:22:50.228Z,58.83
2022-11-23T03:25:17.377Z,57.80
2022-11-23T03:27:44.463Z,61.30
2022-11-23T03:30:11.664Z,64.07
2022-11-23T03:32:38.831Z,59.90
2022-11-23T03:35:06.149Z,60.70
2022-11-23T03:37:33.253Z,63.13
2022-11-23T03:40:00.322Z,60.60
2022-11-23T03:42:27.398Z,61.50
2022-11-23T03:44:54.525Z,60.23
2022-11-23T03:47:21.742Z,63.60
2022-11-23T03:49:48.973Z,62.83
2022-11-23T03:52:16.097Z,62.77
2022-11-23T03:54:43.208Z,63.23
2022-11-23T03:57:10.331Z,63.07
2022-11-23T03:59:37.464Z,61.20
2022-11-23T04:02:04.540Z,62.70
2022-11-23T04:04:31.612Z,62.57
2022-11-23T04:06:58.720Z,62.43
2022-11-23T04:09:25.797Z,63.80
2022-11-23T04:11:52.873Z,62.73
2022-11-23T04:14:20.012Z,62.93
2022-11-23T04:16:47.092Z,64.60
2022-11-23T04:19:14.173Z,64.97
2022-11-23T04:21:41.306Z,65.47
2022-11-23T04:24:08.482Z,64.40
2022-11-23T04:26:35.557Z,61.30
2022-11-23T04:29:02.693Z,63.80
2022-11-23T04:31:29.761Z,68.73
2022-11-23T04:33:57.271Z,70.97
2022-11-23T04:36:24.522Z,70.97
2022-11-23T04:38:51.609Z,69.63
2022-11-23T04:41:18.716Z,67.37
2022-11-23T04:43:45.995Z,64.97
2022-11-23T04:46:13.090Z,61.77
2022-11-23T04:48:40.163Z,59.87
2022-11-23T04:51:07.320Z,62.93
2022-11-23T04:53:34.431Z,66.07
2022-11-23T04:56:01.579Z,67.50
2022-11-23T04:58:30.274Z,67.77
2022-11-23T05:01:01.457Z,72.53
2022-11-23T05:03:28.672Z,70.53
2022-11-23T05:05:58.520Z,68.00
2022-11-23T05:08:25.601Z,66.47
2022-11-23T05:10:52.789Z,68.23
2022-11-23T05:13:19.954Z,72.40
2022-11-23T05:15:47.025Z,70.10
2022-11-23T05:18:14.165Z,71.43
2022-11-23T05:20:41.324Z,81.33
2022-11-23T05:23:08.443Z,81.67
2022-11-23T05:25:35.553Z,76.60
2022-11-23T05:28:11.425Z,70.40
2022-11-23T05:30:44.045Z,69.27
2022-11-23T05:33:11.167Z,71.10
2022-11-23T05:35:38.323Z,70.83
2022-11-23T05:38:05.478Z,76.37
2022-11-23T05:40:32.601Z,76.90
2022-11-23T05:42:59.894Z,78.97
2022-11-23T05:45:27.134Z,75.90
2022-11-23T05:47:54.865Z,76.33
2022-11-23T05:50:22.277Z,81.27
2022-11-23T05:52:49.373Z,77.83
2022-11-23T05:55:16.513Z,88.20
2022-11-23T05:57:43.591Z,85.13
2022-11-23T06:00:11.044Z,83.30
2022-11-23T06:02:41.190Z,85.73
2022-11-23T06:05:09.043Z,85.67
2022-11-23T06:07:36.196Z,91.60
2022-11-23T06:10:03.413Z,104.63
2022-11-23T06:12:30.556Z,104.03
2022-11-23T06:14:57.680Z,92.40
2022-11-23T06:17:24.880Z,93.33
2022-11-23T06:19:51.961Z,89.63
2022-11-23T06:22:19.067Z,90.70
2022-11-23T06:24:46.161Z,88.27
2022-11-23T06:27:18.267Z,84.50
2022-11-23T06:29:46.968Z,96.83
2022-11-23T06:32:14.125Z,98.57
2022-11-23T06:34:41.216Z,99.63
2022-11-23T06:37:08.327Z,99.13
2022-11-23T06:39:35.796Z,80.83
2022-11-23T06:42:30.841Z,79.17
2022-11-23T06:44:50.232Z,75.93
2022-11-23T06:47:19.839Z,78.00
2022-11-23T06:49:49.066Z,79.53
2022-11-23T06:52:16.237Z,80.77
2022-11-23T06:54:43.339Z,82.93
2022-11-23T06:57:10.414Z,87.57
2022-11-23T06:59:40.659Z,85.10
2022-11-23T07:02:11.473Z,83.23
2022-11-23T07:04:38.597Z,84.17
2022-11-23T07:07:05.731Z,86.47
2022-11-23T07:09:33.064Z,93.47
2022-11-23T07:12:00.388Z,95.27
2022-11-23T07:14:27.472Z,99.37
2022-11-23T07:16:54.567Z,104.60
2022-11-23T07:19:21.689Z,105.83
2022-11-23T07:21:48.766Z,105.00
2022-11-23T07:24:15.866Z,94.07
2022-11-23T07:26:43.031Z,92.63
2022-11-23T07:29:10.650Z,89.07
2022-11-23T07:31:37.765Z,81.67
2022-11-23T07:34:05.241Z,79.60
2022-11-23T07:36:32.341Z,79.27
2022-11-23T07:38:59.475Z,79.87
2022-11-23T07:41:27.591Z,60.13
2022-11-23T07:43:54.868Z,60.50
2022-11-23T07:46:22.198Z,57.23
2022-11-23T07:48:49.373Z,65.10
2022-11-23T07:51:16.829Z,74.10
2022-11-23T07:53:43.933Z,81.83
2022-11-23T07:56:11.042Z,72.17
2022-11-23T07:58:38.144Z,70.93
2022-11-23T08:01:05.249Z,70.83
2022-11-23T08:03:32.490Z,73.17
2022-11-23T08:05:59.652Z,71.10
2022-11-23T08:08:26.791Z,68.27
2022-11-23T08:10:54.737Z,75.40
2022-11-23T08:13:22.278Z,60.57
2022-11-23T08:15:54.858Z,65.67
2022-11-23T08:18:23.097Z,76.07
2022-11-23T08:20:50.165Z,80.20
2022-11-23T08:23:17.248Z,76.37
2022-11-23T08:25:44.379Z,84.27
2022-11-23T08:28:11.815Z,80.13
2022-11-23T08:30:39.074Z,72.63
2022-11-23T08:33:06.715Z,51.43
2022-11-23T08:35:34.666Z,46.10
2022-11-23T08:38:01.752Z,45.83
2022-11-23T08:40:28.861Z,41.03
2022-11-23T08:42:56.029Z,38.27
2022-11-23T08:45:23.143Z,36.23
2022-11-23T08:47:51.083Z,36.33
2022-11-23T08:50:18.358Z,36.10
2022-11-23T08:52:45.476Z,34.07
2022-11-23T08:55:12.700Z,31.87
2022-11-23T08:57:39.811Z,31.87
2022-11-23T09:00:07.230Z,39.57
2022-11-23T09:02:34.369Z,30.83
2022-11-23T09:05:01.459Z,31.97
2022-11-23T09:07:28.625Z,31.60
2022-11-23T09:09:55.860Z,30.53
2022-11-23T09:12:22.962Z,29.63
2022-11-23T09:14:50.033Z,28.57
2022-11-23T09:17:17.189Z,29.40
2022-11-23T09:19:44.287Z,27.40
2022-11-23T09:22:11.366Z,28.17
2022-11-23T09:24:38.561Z,27.70
2022-11-23T09:27:05.680Z,27.80
2022-11-23T09:29:32.767Z,27.17
2022-11-23T09:31:59.875Z,31.87
2022-11-23T09:34:26.952Z,34.60
2022-11-23T09:36:54.034Z,33.57
2022-11-23T09:39:21.229Z,35.80
2022-11-23T09:41:51.100Z,37.10
2022-11-23T09:44:18.194Z,28.73
2022-11-23T09:46:48.422Z,27.93
2022-11-23T09:49:19.477Z,24.63
2022-11-23T09:51:46.963Z,26.33
2022-11-23T09:54:31.316Z,23.10
2022-11-23T09:57:01.957Z,23.30
2022-11-23T09:59:32.572Z,24.83
2022-11-23T10:01:59.684Z,24.07
2022-11-23T10:04:26.823Z,26.00
2022-11-23T10:07:04.706Z,30.77
2022-11-23T10:09:41.664Z,25.60
2022-11-23T10:12:11.890Z,25.73
2022-11-23T10:14:57.412Z,28.27
2022-11-23T10:17:24.580Z,27.27
2022-11-23T10:19:54.583Z,32.40
2022-11-23T10:22:22.480Z,31.17
2022-11-23T10:24:50.974Z,33.40
2022-11-23T10:27:18.793Z,47.47
2022-11-23T10:29:45.903Z,35.90
2022-11-23T10:32:32.136Z,29.10
2022-11-23T10:35:02.287Z,32.67
2022-11-23T10:37:29.405Z,30.37
2022-11-23T10:39:56.548Z,32.90
2022-11-23T10:42:29.723Z,58.17
2022-11-23T10:44:56.858Z,37.90
2022-11-23T10:47:34.068Z,33.17
2022-11-23T10:50:01.220Z,31.57
2022-11-23T10:52:31.849Z,30.83
2022-11-23T10:54:59.453Z,34.10
2022-11-23T10:57:33.609Z,28.90
2022-11-23T11:00:09.971Z,28.20
2022-11-23T11:03:06.281Z,29.00
2022-11-23T11:06:07.396Z,28.87
2022-11-23T11:08:28.673Z,29.00
2022-11-23T11:11:00.062Z,22.30
2022-11-23T11:13:53.330Z,28.23
2022-11-23T11:16:26.343Z,26.37
2022-11-23T11:18:53.590Z,26.23
2022-11-23T11:21:20.730Z,26.93
2022-11-23T11:23:54.804Z,31.30
2022-11-23T11:26:23.570Z,32.63
2022-11-23T11:28:51.470Z,28.80
2022-11-23T11:31:38.910Z,27.87
2022-11-23T11:34:15.603Z,27.70
2022-11-23T11:36:56.914Z,26.27
2022-11-23T11:39:30.462Z,25.10
2022-11-23T11:41:57.922Z,27.53
2022-11-23T11:44:25.345Z,28.47
2022-11-23T11:46:55.301Z,29.57
2022-11-23T11:49:24.101Z,25.57
2022-11-23T11:52:03.530Z,25.57
2022-11-23T11:54:39.542Z,29.23
2022-11-23T11:57:07.924Z,26.53
2022-11-23T11:59:43.060Z,25.93
2022-11-23T12:02:10.651Z,25.33
2022-11-23T12:04:42.079Z,39.13
2022-11-23T12:07:11.442Z,31.07
2022-11-23T12:09:39.921Z,40.07
2022-11-23T12:12:08.948Z,36.87
2022-11-23T12:14:36.774Z,33.73
2022-11-23T12:17:32.399Z,31.73
2022-11-23T12:20:04.791Z,29.70
2022-11-23T12:22:41.228Z,30.07
2022-11-23T12:25:27.037Z,31.27
2022-11-23T12:28:03.864Z,36.40
2022-11-23T12:30:31.053Z,29.07
2022-11-23T12:33:07.147Z,25.43
2022-11-23T12:35:40.559Z,27.17
2022-11-23T12:38:24.012Z,28.70
2022-11-23T12:40:59.716Z,40.93
2022-11-23T12:43:36.448Z,26.17
2022-11-23T12:46:24.925Z,27.93
2022-11-23T12:48:58.204Z,27.53
2022-11-23T12:51:41.242Z,27.63
2022-11-23T12:54:08.414Z,31.23
2022-11-23T12:56:48.099Z,30.47
2022-11-23T12:59:15.530Z,29.00
2022-11-23T13:01:44.018Z,25.00
2022-11-23T13:04:32.549Z,31.33
2022-11-23T13:07:27.610Z,31.70
2022-11-23T13:10:09.030Z,25.27
2022-11-23T13:12:50.919Z,26.17
2022-11-23T13:15:33.129Z,30.10
2022-11-23T13:18:19.538Z,28.57
2022-11-23T13:21:05.241Z,29.67
2022-11-23T13:23:38.254Z,32.67
2022-11-23T13:26:15.659Z,41.83
2022-11-23T13:28:43.364Z,40.97
2022-11-23T13:31:19.457Z,43.03
2022-11-23T13:33:47.431Z,39.37
2022-11-23T13:37:11.620Z,44.23
2022-11-23T13:39:40.656Z,42.50
2022-11-23T13:42:09.348Z,41.53
2022-11-23T13:44:36.604Z,46.93
2022-11-23T13:47:04.986Z,46.23
2022-11-23T13:49:32.165Z,42.43
2022-11-23T13:52:21.609Z,36.43
2022-11-23T13:54:57.876Z,32.03
2022-11-23T13:57:24.992Z,35.57
2022-11-23T13:59:52.063Z,39.20
2022-11-23T14:02:26.947Z,40.53
2022-11-23T14:04:54.204Z,42.40
2022-11-23T14:07:25.492Z,40.77
2022-11-23T14:09:53.867Z,34.90
2022-11-23T14:12:33.187Z,71.80
2022-11-23T14:15:12.361Z,63.33
2022-11-23T14:17:48.391Z,48.33
2022-11-23T14:20:25.966Z,41.10
2022-11-23T14:23:00.992Z,49.43
2022-11-23T14:25:40.372Z,39.30
2022-11-23T14:28:19.071Z,40.47
2022-11-23T14:31:08.129Z,41.67
2022-11-23T14:33:43.564Z,48.00
2022-11-23T14:36:17.327Z,48.57
2022-11-23T14:38:55.773Z,49.77
2022-11-23T14:41:23.057Z,47.63
2022-11-23T14:43:50.150Z,40.80
2022-11-23T14:46:19.810Z,40.00
2022-11-23T14:48:47.630Z,38.07
2022-11-23T14:51:14.754Z,51.70
2022-11-23T14:53:46.674Z,53.03
2022-11-23T14:56:20.161Z,70.67
2022-11-23T14:58:47.273Z,73.20
2022-11-23T15:01:15.310Z,78.27
2022-11-23T15:03:50.549Z,57.27
2022-11-23T15:06:18.121Z,57.10
2022-11-23T15:08:50.487Z,57.63
2022-11-23T15:11:18.064Z,47.37
2022-11-23T15:13:46.332Z,66.83
2022-11-23T15:16:14.152Z,56.37
2022-11-23T15:18:41.331Z,64.67
2022-11-23T15:21:11.235Z,59.93
2022-11-23T15:23:57.358Z,86.47
2022-11-23T15:26:47.600Z,85.67
2022-11-23T15:29:47.926Z,81.53
2022-11-23T15:32:30.740Z,87.67
2022-11-23T15:35:08.493Z,86.60
2022-11-23T15:37:42.152Z,75.90
2022-11-23T15:40:12.462Z,73.00
2022-11-23T15:42:39.561Z,74.00
2022-11-23T15:45:06.907Z,81.37
2022-11-23T15:47:34.291Z,63.73
2022-11-23T15:50:04.843Z,73.83
2022-11-23T15:52:34.575Z,57.77
2022-11-23T15:55:09.994Z,50.37
2022-11-23T15:57:37.581Z,51.77
2022-11-23T16:00:05.120Z,45.97
2022-11-23T16:02:32.321Z,43.00
2022-11-23T16:05:05.548Z,47.90
2022-11-23T16:07:32.788Z,35.30
2022-11-23T16:10:32.242Z,39.77
2022-11-23T16:12:59.929Z,39.47
2022-11-23T16:15:37.774Z,42.83
2022-11-23T16:18:05.484Z,41.30
2022-11-23T16:20:32.645Z,37.90
2022-11-23T16:23:02.915Z,46.70
2022-11-23T16:25:30.159Z,48.90
2022-11-23T16:28:00.511Z,39.83
2022-11-23T16:30:28.579Z,37.40
2022-11-23T16:32:55.781Z,42.43
2022-11-23T16:35:22.898Z,37.90
2022-11-23T16:37:50.083Z,50.73
2022-11-23T16:40:17.242Z,38.93
2022-11-23T16:42:44.619Z,38.70
2022-11-23T16:45:11.983Z,39.47
2022-11-23T16:47:51.222Z,57.40
2022-11-23T16:50:18.311Z,53.87
2022-11-23T16:52:45.376Z,52.37
2022-11-23T16:55:12.470Z,50.60
2022-11-23T16:57:39.626Z,39.67
2022-11-23T17:00:07.887Z,38.83
2022-11-23T17:02:35.032Z,33.43
2022-11-23T17:05:02.793Z,37.17
2022-11-23T17:07:29.991Z,41.43
2022-11-23T17:09:59.072Z,36.43
2022-11-23T17:12:26.186Z,38.23
2022-11-23T17:14:53.355Z,104.73
2022-11-23T17:17:21.324Z,51.57
2022-11-23T17:19:51.345Z,51.40
2022-11-23T17:22:18.885Z,41.40
2022-11-23T17:24:46.322Z,38.03
2022-11-23T17:27:17.114Z,36.70
2022-11-23T17:29:44.746Z,38.17
2022-11-23T17:32:12.312Z,38.03
2022-11-23T17:34:39.567Z,34.37
2022-11-23T17:37:06.795Z,37.70
2022-11-23T17:39:34.055Z,43.33
2022-11-23T17:42:04.856Z,41.07
2022-11-23T17:44:32.466Z,37.90
2022-11-23T17:46:59.573Z,33.13
2022-11-23T17:49:28.341Z,34.77
2022-11-23T17:51:55.852Z,36.70
2022-11-23T17:54:23.371Z,35.33
2022-11-23T17:56:51.480Z,41.87
2022-11-23T17:59:19.029Z,49.73
2022-11-23T18:01:46.348Z,43.20
2022-11-23T18:04:13.571Z,41.57
2022-11-23T18:06:40.691Z,40.00
2022-11-23T18:09:07.791Z,57.03
2022-11-23T18:11:34.941Z,47.53
2022-11-23T18:14:03.259Z,57.40
2022-11-23T18:16:30.396Z,50.30
2022-11-23T18:18:57.601Z,50.60
2022-11-23T18:21:24.718Z,49.90
2022-11-23T18:23:51.831Z,55.73
2022-11-23T18:26:20.189Z,43.57
2022-11-23T18:28:47.422Z,36.63
2022-11-23T18:31:14.649Z,34.63
2022-11-23T18:33:41.949Z,39.57
2022-11-23T18:36:10.544Z,37.73
2022-11-23T18:38:38.139Z,37.70
2022-11-23T18:41:05.402Z,42.90
2022-11-23T18:43:32.508Z,52.97
2022-11-23T18:45:59.843Z,42.50
2022-11-23T18:48:27.345Z,38.37
2022-11-23T18:50:54.464Z,35.50
2022-11-23T18:53:21.599Z,41.03
2022-11-23T18:55:48.767Z,37.70
2022-11-23T18:58:15.999Z,42.23
2022-11-23T19:00:43.120Z,42.53
2022-11-23T19:03:10.326Z,47.83
2022-11-23T19:05:37.452Z,52.33
2022-11-23T19:08:05.515Z,55.80
2022-11-23T19:10:33.225Z,49.80
2022-11-23T19:13:05.053Z,59.97
2022-11-23T19:15:33.070Z,66.67
2022-11-23T19:18:00.466Z,89.30
2022-11-23T19:20:28.383Z,97.30
2022-11-23T19:22:55.951Z,75.00
2022-11-23T19:25:23.099Z,58.87
2022-11-23T19:27:51.370Z,52.00
2022-11-23T19:30:18.677Z,56.67
2022-11-23T19:32:45.835Z,56.83
2022-11-23T19:35:12.962Z,68.30
2022-11-23T19:37:40.115Z,73.63
2022-11-23T19:40:07.635Z,64.97
2022-11-23T19:42:35.850Z,57.67
2022-11-23T19:45:03.315Z,54.97
2022-11-23T19:47:31.565Z,69.90
2022-11-23T19:49:59.206Z,57.43
2022-11-23T19:52:41.722Z,47.23
2022-11-23T19:55:13.758Z,42.63
2022-11-23T19:57:40.886Z,42.03
2022-11-23T20:00:09.357Z,44.83
2022-11-23T20:02:36.492Z,52.03
2022-11-23T20:05:03.708Z,47.57
2022-11-23T20:07:31.810Z,45.80
2022-11-23T20:09:58.974Z,40.90
2022-11-23T20:12:26.054Z,66.47
2022-11-23T20:14:53.151Z,71.37
2022-11-23T20:17:20.301Z,45.90
2022-11-23T20:19:47.433Z,47.87
2022-11-23T20:22:14.558Z,49.63
2022-11-23T20:24:41.732Z,63.00
2022-11-23T20:27:08.890Z,48.00
2022-11-23T20:29:36.198Z,44.60
2022-11-23T20:32:03.455Z,47.67
2022-11-23T20:34:30.613Z,50.90
2022-11-23T20:36:57.730Z,81.17
2022-11-23T20:39:24.931Z,58.37
2022-11-23T20:41:52.019Z,92.47
2022-11-23T20:44:19.138Z,90.17
2022-11-23T20:47:02.988Z,84.67
2022-11-23T20:49:31.084Z,53.37
2022-11-23T20:51:58.624Z,47.53
2022-11-23T20:54:25.725Z,130.73
2022-11-23T20:56:52.824Z,141.90
2022-11-23T20:59:20.323Z,91.43
2022-11-23T21:01:47.444Z,64.93
2022-11-23T21:04:14.585Z,62.57
2022-11-23T21:06:41.778Z,65.17
2022-11-23T21:09:09.713Z,59.87
2022-11-23T21:11:55.951Z,53.10
2022-11-23T21:14:24.672Z,49.30
2022-11-23T21:16:56.190Z,39.70
2022-11-23T21:19:33.325Z,40.13
2022-11-23T21:22:03.498Z,39.40
2022-11-23T21:24:30.721Z,35.03
2022-11-23T21:26:57.911Z,41.37
2022-11-23T21:29:26.054Z,42.30
2022-11-23T21:31:53.393Z,40.80
2022-11-23T21:34:21.189Z,41.87
2022-11-23T21:36:48.584Z,40.70
2022-11-23T21:39:15.811Z,41.20
2022-11-23T21:41:43.031Z,45.53
2022-11-23T21:44:10.276Z,40.47
2022-11-23T21:46:37.787Z,40.37
2022-11-23T21:49:06.404Z,36.10
2022-11-23T21:51:33.722Z,83.20
2022-11-23T21:54:01.508Z,58.00
2022-11-23T21:56:29.140Z,44.70
2022-11-23T21:58:56.564Z,34.23
2022-11-23T22:04:19.142Z,32.23
2022-11-23T22:06:46.431Z,31.87
2022-11-23T22:09:13.703Z,32.73
2022-11-23T22:11:43.192Z,33.07
2022-11-23T22:14:11.955Z,35.00
2022-11-23T22:16:43.442Z,30.47
2022-11-23T22:19:11.240Z,32.50
2022-11-23T22:21:39.010Z,33.40
2022-11-23T22:24:06.566Z,32.13
2022-11-23T22:26:33.858Z,32.53
2022-11-23T22:29:02.600Z,35.33
2022-11-23T22:31:34.101Z,40.83
2022-11-23T22:34:05.680Z,44.70
2022-11-23T22:36:32.883Z,50.23
2022-11-23T22:39:02.197Z,48.70
2022-11-23T22:41:29.863Z,45.93
2022-11-23T22:43:57.287Z,42.10
2022-11-23T22:46:25.311Z,41.77
2022-11-23T22:48:52.926Z,38.17
2022-11-23T22:51:20.860Z,37.43
2022-11-23T22:53:48.183Z,33.47
2022-11-23T22:56:19.527Z,34.47
2022-11-23T22:58:47.367Z,34.43
2022-11-23T23:01:15.317Z,33.83
2022-11-23T23:03:42.641Z,34.17
2022-11-23T23:06:19.699Z,34.63
2022-11-23T23:08:47.086Z,34.60
2022-11-23T23:11:14.584Z,33.17
2022-11-23T23:13:42.253Z,35.47
2022-11-23T23:16:11.866Z,34.07
2022-11-23T23:18:39.226Z,34.57
2022-11-23T23:21:10.926Z,32.77
2022-11-23T23:23:38.748Z,33.87
2022-11-23T23:26:06.277Z,35.80
2022-11-23T23:28:33.621Z,35.10
2022-11-23T23:31:04.173Z,33.63
2022-11-23T23:33:33.286Z,35.20
2022-11-23T23:36:04.526Z,33.13
2022-11-23T23:38:31.976Z,37.20
2022-11-23T23:40:59.230Z,36.23
2022-11-23T23:43:26.513Z,37.87
2022-11-23T23:45:54.092Z,32.87
2022-11-23T23:48:21.278Z,33.73
2022-11-23T23:50:48.469Z,33.33
2022-11-23T23:53:15.631Z,33.17
2022-11-23T23:55:42.796Z,32.50
2022-11-23T23:58:09.977Z,34.87
